createdAt,value
2018-12-08T00:03:15.563Z,91.03
2018-12-08T00:13:34.936Z,91.10
2018-12-08T00:23:55.618Z,91.44
2018-12-08T00:34:17.363Z,91.57
2018-12-08T00:44:38.727Z,90.80
2018-12-08T00:55:00.296Z,90.73
2018-12-08T01:05:19.368Z,91.56
2018-12-08T01:15:38.644Z,92.03
2018-12-08T01:25:57.895Z,92.38
2018-12-08T01:36:17.894Z,92.27
2018-12-08T01:46:36.634Z,91.97
2018-12-08T01:56:56.822Z,91.83
2018-12-08T02:07:15.923Z,91.21
2018-12-08T02:17:34.646Z,89.49
2018-12-08T02:27:55.847Z,88.81
2018-12-08T02:38:15.248Z,89.56
2018-12-08T02:48:34.100Z,87.76
2018-12-08T02:58:54.218Z,88.07
2018-12-08T03:09:13.763Z,86.56
2018-12-08T03:19:34.138Z,85.31
2018-12-08T03:29:53.635Z,83.86
2018-12-08T03:40:13.723Z,84.33
2018-12-08T03:50:32.607Z,81.52
2018-12-08T04:00:52.727Z,81.37
2018-12-08T04:11:11.966Z,80.55
2018-12-08T04:21:31.021Z,79.74
2018-12-08T04:31:50.502Z,78.19
2018-12-08T04:42:10.767Z,76.73
2018-12-08T04:52:30.245Z,77.24
2018-12-08T05:02:50.309Z,77.85
2018-12-08T05:13:09.939Z,76.68
2018-12-08T05:23:36.847Z,75.65
2018-12-08T05:33:57.623Z,76.13
2018-12-08T05:44:18.527Z,74.75
2018-12-08T05:54:38.451Z,73.53
2018-12-08T06:04:57.811Z,75.17
2018-12-08T06:15:19.251Z,75.90
2018-12-08T06:25:38.809Z,77.21
2018-12-08T06:35:58.685Z,77.73
2018-12-08T06:46:18.310Z,94.67
2018-12-08T06:56:37.339Z,95.30
2018-12-08T07:06:57.303Z,96.35
2018-12-08T07:17:17.453Z,94.92
2018-12-08T07:27:37.881Z,94.78
2018-12-08T07:37:58.275Z,94.07
2018-12-08T07:48:18.645Z,94.01
2018-12-08T07:58:38.574Z,93.01
2018-12-08T08:08:58.502Z,88.55
2018-12-08T08:19:18.746Z,88.79
2018-12-08T08:29:37.675Z,90.43
2018-12-08T08:39:57.212Z,89.72
2018-12-08T08:50:19.525Z,85.72
2018-12-08T09:00:39.454Z,86.37
2018-12-08T09:10:59.445Z,77.93
2018-12-08T09:21:19.455Z,79.12
2018-12-08T09:31:39.209Z,77.29
2018-12-08T09:41:58.308Z,75.12
2018-12-08T09:52:18.166Z,71.80
2018-12-08T10:02:38.434Z,73.34
2018-12-08T10:12:57.011Z,71.37
2018-12-08T10:23:16.830Z,66.10
2018-12-08T10:33:37.468Z,66.02
2018-12-08T10:43:56.532Z,66.82
2018-12-08T10:54:15.685Z,66.53
2018-12-08T11:04:34.572Z,67.36
2018-12-08T11:15:00.712Z,65.81
2018-12-08T11:25:14.923Z,63.00
2018-12-08T11:35:34.415Z,62.74
2018-12-08T11:45:53.833Z,62.23
2018-12-08T11:56:13.977Z,62.57
2018-12-08T12:06:35.134Z,62.80
2018-12-08T12:16:54.521Z,61.50
2018-12-08T12:27:14.438Z,61.72
2018-12-08T12:37:37.952Z,61.09
2018-12-08T12:47:58.136Z,62.00
2018-12-08T12:58:18.828Z,62.17
2018-12-08T13:08:39.900Z,56.21
2018-12-08T13:19:01.528Z,50.93
2018-12-08T13:29:21.681Z,54.74
2018-12-08T13:39:41.495Z,58.09
2018-12-08T13:50:00.699Z,57.93
2018-12-08T14:00:20.963Z,59.56
2018-12-08T14:10:41.612Z,60.73
2018-12-08T14:21:01.060Z,61.67
2018-12-08T14:31:21.563Z,61.65
2018-12-08T14:41:42.040Z,62.43
2018-12-08T14:52:02.979Z,60.54
2018-12-08T15:13:02.538Z,60.44
2018-12-08T15:23:22.853Z,59.61
2018-12-08T15:33:44.531Z,58.60
2018-12-08T15:44:05.178Z,58.61
2018-12-08T15:54:26.238Z,58.27
2018-12-08T16:04:46.615Z,59.32
2018-12-08T16:15:09.536Z,59.48
2018-12-08T16:25:29.792Z,58.94
2018-12-08T16:35:50.876Z,58.95
2018-12-08T16:46:13.138Z,59.60
2018-12-08T16:56:33.245Z,59.89
2018-12-08T17:06:52.839Z,63.81
2018-12-08T17:17:14.183Z,65.54
2018-12-08T17:27:39.525Z,69.21
2018-12-08T17:38:00.375Z,70.32
2018-12-08T17:48:21.685Z,69.39
2018-12-08T17:58:42.530Z,71.27
2018-12-08T18:09:05.730Z,71.83
2018-12-08T18:19:28.558Z,73.52
2018-12-08T18:29:49.571Z,74.46
2018-12-08T18:40:09.928Z,69.57
2018-12-08T18:50:33.825Z,69.03
2018-12-08T19:00:54.070Z,69.24
2018-12-08T22:03:55.448Z,81.17
2018-12-08T22:14:16.293Z,81.97
2018-12-08T22:24:37.054Z,82.52
2018-12-08T22:34:56.339Z,83.58
2018-12-08T22:45:17.067Z,84.18
2018-12-08T22:55:36.102Z,83.37
2018-12-08T23:05:56.232Z,83.84
2018-12-08T23:16:16.152Z,84.55
2018-12-08T23:26:36.345Z,85.90
2018-12-08T23:36:55.782Z,85.67
2018-12-08T23:47:15.090Z,86.94
2018-12-08T23:57:35.029Z,87.35
